sensor_id;sensor_type;location;lat;lon;timestamp;P1;durP1;ratioP1;P2;durP2;ratioP2
5682;SDS011;2864;49.220;8.654;2022-09-11T00:00:37;7.23;;;4.27;;
5682;SDS011;2864;49.220;8.654;2022-09-11T00:03:03;6.43;;;3.83;;
5682;SDS011;2864;49.220;8.654;2022-09-11T00:05:29;7.73;;;4.07;;
5682;SDS011;2864;49.220;8.654;2022-09-11T00:07:55;7.67;;;3.87;;
5682;SDS011;2864;49.220;8.654;2022-09-11T00:10:21;7.87;;;4.10;;
5682;SDS011;2864;49.220;8.654;2022-09-11T00:12:48;10.27;;;4.13;;
5682;SDS011;2864;49.220;8.654;2022-09-11T00:15:15;8.27;;;4.50;;
5682;SDS011;2864;49.220;8.654;2022-09-11T00:17:41;6.20;;;4.13;;
5682;SDS011;2864;49.220;8.654;2022-09-11T00:20:06;6.47;;;3.77;;
5682;SDS011;2864;49.220;8.654;2022-09-11T00:22:33;7.40;;;3.80;;
5682;SDS011;2864;49.220;8.654;2022-09-11T00:24:58;8.23;;;4.23;;
5682;SDS011;2864;49.220;8.654;2022-09-11T00:27:24;7.50;;;3.67;;
5682;SDS011;2864;49.220;8.654;2022-09-11T00:29:49;8.00;;;4.07;;
5682;SDS011;2864;49.220;8.654;2022-09-11T00:32:15;8.20;;;4.30;;
5682;SDS011;2864;49.220;8.654;2022-09-11T00:34:42;5.17;;;3.70;;
5682;SDS011;2864;49.220;8.654;2022-09-11T00:37:10;10.23;;;3.97;;
5682;SDS011;2864;49.220;8.654;2022-09-11T00:39:36;8.73;;;4.30;;
5682;SDS011;2864;49.220;8.654;2022-09-11T00:42:02;11.40;;;3.83;;
5682;SDS011;2864;49.220;8.654;2022-09-11T00:47:16;5.37;;;4.00;;
5682;SDS011;2864;49.220;8.654;2022-09-11T00:49:43;7.83;;;4.00;;
5682;SDS011;2864;49.220;8.654;2022-09-11T00:52:22;7.87;;;4.63;;
5682;SDS011;2864;49.220;8.654;2022-09-11T00:54:59;8.83;;;4.10;;
5682;SDS011;2864;49.220;8.654;2022-09-11T00:57:31;6.77;;;4.00;;
5682;SDS011;2864;49.220;8.654;2022-09-11T01:00:00;9.37;;;4.00;;
5682;SDS011;2864;49.220;8.654;2022-09-11T01:02:29;9.77;;;4.27;;
5682;SDS011;2864;49.220;8.654;2022-09-11T01:04:57;6.60;;;4.03;;
5682;SDS011;2864;49.220;8.654;2022-09-11T01:07:24;7.20;;;4.40;;
5682;SDS011;2864;49.220;8.654;2022-09-11T01:09:50;6.67;;;4.43;;
5682;SDS011;2864;49.220;8.654;2022-09-11T01:15:22;5.60;;;4.20;;
5682;SDS011;2864;49.220;8.654;2022-09-11T01:18:07;9.57;;;4.70;;
5682;SDS011;2864;49.220;8.654;2022-09-11T01:23:59;6.30;;;4.57;;
5682;SDS011;2864;49.220;8.654;2022-09-11T01:29:34;8.23;;;4.40;;
5682;SDS011;2864;49.220;8.654;2022-09-11T01:34:48;7.77;;;3.80;;
5682;SDS011;2864;49.220;8.654;2022-09-11T01:37:34;9.50;;;4.30;;
5682;SDS011;2864;49.220;8.654;2022-09-11T01:40:11;6.97;;;4.17;;
5682;SDS011;2864;49.220;8.654;2022-09-11T01:42:45;8.13;;;4.93;;
5682;SDS011;2864;49.220;8.654;2022-09-11T01:45:16;7.47;;;4.10;;
5682;SDS011;2864;49.220;8.654;2022-09-11T01:47:43;8.90;;;4.30;;
5682;SDS011;2864;49.220;8.654;2022-09-11T01:50:11;6.93;;;3.83;;
5682;SDS011;2864;49.220;8.654;2022-09-11T01:52:45;10.43;;;4.30;;
5682;SDS011;2864;49.220;8.654;2022-09-11T01:55:20;8.37;;;4.10;;
5682;SDS011;2864;49.220;8.654;2022-09-11T01:57:54;10.40;;;4.27;;
5682;SDS011;2864;49.220;8.654;2022-09-11T02:00:26;9.43;;;4.13;;
5682;SDS011;2864;49.220;8.654;2022-09-11T02:02:59;6.87;;;4.00;;
5682;SDS011;2864;49.220;8.654;2022-09-11T02:05:39;6.23;;;3.97;;
5682;SDS011;2864;49.220;8.654;2022-09-11T02:08:15;6.80;;;4.20;;
5682;SDS011;2864;49.220;8.654;2022-09-11T02:16:40;5.33;;;4.00;;
5682;SDS011;2864;49.220;8.654;2022-09-11T02:19:29;5.50;;;4.17;;
5682;SDS011;2864;49.220;8.654;2022-09-11T02:21:55;5.37;;;4.10;;
5682;SDS011;2864;49.220;8.654;2022-09-11T02:24:22;5.50;;;4.13;;
5682;SDS011;2864;49.220;8.654;2022-09-11T02:26:50;9.93;;;3.90;;
5682;SDS011;2864;49.220;8.654;2022-09-11T02:29:22;5.63;;;4.00;;
5682;SDS011;2864;49.220;8.654;2022-09-11T02:31:48;11.63;;;4.63;;
5682;SDS011;2864;49.220;8.654;2022-09-11T02:34:16;5.70;;;4.10;;
5682;SDS011;2864;49.220;8.654;2022-09-11T02:36:56;7.50;;;4.20;;
5682;SDS011;2864;49.220;8.654;2022-09-11T02:47:44;9.10;;;4.23;;
5682;SDS011;2864;49.220;8.654;2022-09-11T02:50:31;10.63;;;3.90;;
5682;SDS011;2864;49.220;8.654;2022-09-11T02:58:44;8.57;;;4.17;;
5682;SDS011;2864;49.220;8.654;2022-09-11T03:01:14;7.77;;;4.23;;
5682;SDS011;2864;49.220;8.654;2022-09-11T03:03:41;4.80;;;4.10;;
5682;SDS011;2864;49.220;8.654;2022-09-11T03:06:12;6.33;;;4.33;;
5682;SDS011;2864;49.220;8.654;2022-09-11T03:08:40;7.00;;;4.30;;
5682;SDS011;2864;49.220;8.654;2022-09-11T03:11:06;6.93;;;4.47;;
5682;SDS011;2864;49.220;8.654;2022-09-11T03:13:33;7.83;;;4.30;;
5682;SDS011;2864;49.220;8.654;2022-09-11T03:15:59;8.17;;;4.57;;
5682;SDS011;2864;49.220;8.654;2022-09-11T03:18:25;12.27;;;4.37;;
5682;SDS011;2864;49.220;8.654;2022-09-11T03:20:51;6.83;;;4.63;;
5682;SDS011;2864;49.220;8.654;2022-09-11T03:23:17;8.80;;;4.93;;
5682;SDS011;2864;49.220;8.654;2022-09-11T03:25:42;7.87;;;5.17;;
5682;SDS011;2864;49.220;8.654;2022-09-11T03:28:08;7.90;;;4.80;;
5682;SDS011;2864;49.220;8.654;2022-09-11T03:30:34;8.13;;;4.87;;
5682;SDS011;2864;49.220;8.654;2022-09-11T03:33:00;8.13;;;5.07;;
5682;SDS011;2864;49.220;8.654;2022-09-11T03:35:26;7.63;;;5.20;;
5682;SDS011;2864;49.220;8.654;2022-09-11T03:37:52;8.23;;;5.50;;
5682;SDS011;2864;49.220;8.654;2022-09-11T03:40:19;8.73;;;4.70;;
5682;SDS011;2864;49.220;8.654;2022-09-11T03:42:46;11.53;;;5.53;;
5682;SDS011;2864;49.220;8.654;2022-09-11T03:45:12;6.43;;;5.20;;
5682;SDS011;2864;49.220;8.654;2022-09-11T03:47:39;6.90;;;4.90;;
5682;SDS011;2864;49.220;8.654;2022-09-11T03:50:05;7.63;;;4.80;;
5682;SDS011;2864;49.220;8.654;2022-09-11T03:52:35;8.60;;;5.07;;
5682;SDS011;2864;49.220;8.654;2022-09-11T03:55:01;8.90;;;5.90;;
5682;SDS011;2864;49.220;8.654;2022-09-11T03:57:34;7.00;;;5.13;;
5682;SDS011;2864;49.220;8.654;2022-09-11T04:00:00;7.20;;;5.50;;
5682;SDS011;2864;49.220;8.654;2022-09-11T04:02:28;10.77;;;5.70;;
5682;SDS011;2864;49.220;8.654;2022-09-11T04:04:53;8.27;;;5.37;;
5682;SDS011;2864;49.220;8.654;2022-09-11T04:07:19;9.27;;;5.70;;
5682;SDS011;2864;49.220;8.654;2022-09-11T04:09:46;7.17;;;5.70;;
5682;SDS011;2864;49.220;8.654;2022-09-11T04:12:12;10.40;;;6.10;;
5682;SDS011;2864;49.220;8.654;2022-09-11T04:14:37;8.67;;;6.30;;
5682;SDS011;2864;49.220;8.654;2022-09-11T04:17:04;7.47;;;6.07;;
5682;SDS011;2864;49.220;8.654;2022-09-11T04:19:32;9.87;;;6.03;;
5682;SDS011;2864;49.220;8.654;2022-09-11T04:21:58;10.60;;;6.27;;
5682;SDS011;2864;49.220;8.654;2022-09-11T04:24:24;12.97;;;6.47;;
5682;SDS011;2864;49.220;8.654;2022-09-11T04:26:49;14.67;;;6.93;;
5682;SDS011;2864;49.220;8.654;2022-09-11T04:29:15;9.10;;;6.77;;
5682;SDS011;2864;49.220;8.654;2022-09-11T04:31:41;6.97;;;6.20;;
5682;SDS011;2864;49.220;8.654;2022-09-11T04:34:08;11.00;;;7.10;;
5682;SDS011;2864;49.220;8.654;2022-09-11T04:36:34;9.97;;;6.80;;
5682;SDS011;2864;49.220;8.654;2022-09-11T04:39:00;9.67;;;7.03;;
5682;SDS011;2864;49.220;8.654;2022-09-11T04:41:26;10.57;;;6.67;;
5682;SDS011;2864;49.220;8.654;2022-09-11T04:43:53;9.33;;;6.93;;
5682;SDS011;2864;49.220;8.654;2022-09-11T04:46:20;9.73;;;6.70;;
5682;SDS011;2864;49.220;8.654;2022-09-11T04:48:48;13.27;;;6.97;;
5682;SDS011;2864;49.220;8.654;2022-09-11T04:51:26;10.20;;;6.80;;
5682;SDS011;2864;49.220;8.654;2022-09-11T04:53:54;12.00;;;6.77;;
5682;SDS011;2864;49.220;8.654;2022-09-11T04:56:21;9.50;;;6.37;;
5682;SDS011;2864;49.220;8.654;2022-09-11T04:58:52;12.13;;;7.60;;
5682;SDS011;2864;49.220;8.654;2022-09-11T05:01:20;9.37;;;7.07;;
5682;SDS011;2864;49.220;8.654;2022-09-11T05:03:46;12.07;;;7.10;;
5682;SDS011;2864;49.220;8.654;2022-09-11T05:06:12;10.90;;;7.20;;
5682;SDS011;2864;49.220;8.654;2022-09-11T05:08:43;8.23;;;6.97;;
5682;SDS011;2864;49.220;8.654;2022-09-11T05:11:11;8.20;;;6.63;;
5682;SDS011;2864;49.220;8.654;2022-09-11T05:13:39;10.07;;;7.50;;
5682;SDS011;2864;49.220;8.654;2022-09-11T05:16:06;9.50;;;7.23;;
5682;SDS011;2864;49.220;8.654;2022-09-11T05:18:36;10.50;;;7.10;;
5682;SDS011;2864;49.220;8.654;2022-09-11T05:21:04;9.50;;;7.10;;
5682;SDS011;2864;49.220;8.654;2022-09-11T05:23:32;11.63;;;7.33;;
5682;SDS011;2864;49.220;8.654;2022-09-11T05:25:59;11.40;;;7.37;;
5682;SDS011;2864;49.220;8.654;2022-09-11T05:28:26;11.40;;;7.93;;
5682;SDS011;2864;49.220;8.654;2022-09-11T05:30:54;10.33;;;7.53;;
5682;SDS011;2864;49.220;8.654;2022-09-11T05:33:20;11.57;;;7.43;;
5682;SDS011;2864;49.220;8.654;2022-09-11T05:35:50;8.83;;;7.07;;
5682;SDS011;2864;49.220;8.654;2022-09-11T05:38:17;11.23;;;7.60;;
5682;SDS011;2864;49.220;8.654;2022-09-11T05:40:49;11.20;;;7.17;;
5682;SDS011;2864;49.220;8.654;2022-09-11T05:43:16;9.93;;;7.10;;
5682;SDS011;2864;49.220;8.654;2022-09-11T05:45:43;12.30;;;6.87;;
5682;SDS011;2864;49.220;8.654;2022-09-11T05:48:10;8.87;;;7.00;;
5682;SDS011;2864;49.220;8.654;2022-09-11T05:50:36;12.23;;;7.13;;
5682;SDS011;2864;49.220;8.654;2022-09-11T05:53:02;10.93;;;7.90;;
5682;SDS011;2864;49.220;8.654;2022-09-11T05:55:32;9.33;;;6.70;;
5682;SDS011;2864;49.220;8.654;2022-09-11T05:58:01;14.17;;;7.13;;
5682;SDS011;2864;49.220;8.654;2022-09-11T06:00:27;10.23;;;7.57;;
5682;SDS011;2864;49.220;8.654;2022-09-11T06:02:54;9.57;;;7.47;;
5682;SDS011;2864;49.220;8.654;2022-09-11T06:05:20;11.47;;;8.27;;
5682;SDS011;2864;49.220;8.654;2022-09-11T06:07:45;13.77;;;8.93;;
5682;SDS011;2864;49.220;8.654;2022-09-11T06:10:11;11.57;;;8.80;;
5682;SDS011;2864;49.220;8.654;2022-09-11T06:12:37;10.23;;;8.90;;
5682;SDS011;2864;49.220;8.654;2022-09-11T06:15:03;11.10;;;8.80;;
5682;SDS011;2864;49.220;8.654;2022-09-11T06:17:29;9.87;;;7.90;;
5682;SDS011;2864;49.220;8.654;2022-09-11T06:19:54;12.20;;;8.30;;
5682;SDS011;2864;49.220;8.654;2022-09-11T06:22:20;10.83;;;8.40;;
5682;SDS011;2864;49.220;8.654;2022-09-11T06:24:46;12.77;;;8.00;;
5682;SDS011;2864;49.220;8.654;2022-09-11T06:27:13;8.90;;;7.37;;
5682;SDS011;2864;49.220;8.654;2022-09-11T06:29:39;12.17;;;7.97;;
5682;SDS011;2864;49.220;8.654;2022-09-11T06:32:05;8.50;;;6.90;;
5682;SDS011;2864;49.220;8.654;2022-09-11T06:34:31;11.03;;;7.17;;
5682;SDS011;2864;49.220;8.654;2022-09-11T06:36:57;9.97;;;6.00;;
5682;SDS011;2864;49.220;8.654;2022-09-11T06:39:22;9.43;;;6.10;;
5682;SDS011;2864;49.220;8.654;2022-09-11T06:41:48;9.73;;;6.63;;
5682;SDS011;2864;49.220;8.654;2022-09-11T06:44:14;8.83;;;6.67;;
5682;SDS011;2864;49.220;8.654;2022-09-11T06:46:40;12.07;;;6.80;;
5682;SDS011;2864;49.220;8.654;2022-09-11T06:49:05;11.37;;;6.80;;
5682;SDS011;2864;49.220;8.654;2022-09-11T06:51:31;12.70;;;6.77;;
5682;SDS011;2864;49.220;8.654;2022-09-11T06:53:57;10.03;;;6.43;;
5682;SDS011;2864;49.220;8.654;2022-09-11T06:56:26;9.80;;;6.40;;
5682;SDS011;2864;49.220;8.654;2022-09-11T06:58:52;8.53;;;6.87;;
5682;SDS011;2864;49.220;8.654;2022-09-11T07:01:18;6.80;;;6.00;;
5682;SDS011;2864;49.220;8.654;2022-09-11T07:03:48;9.90;;;6.53;;
5682;SDS011;2864;49.220;8.654;2022-09-11T07:06:19;9.10;;;6.40;;
5682;SDS011;2864;49.220;8.654;2022-09-11T07:08:52;11.43;;;6.47;;
5682;SDS011;2864;49.220;8.654;2022-09-11T07:11:24;10.00;;;6.43;;
5682;SDS011;2864;49.220;8.654;2022-09-11T07:13:50;11.97;;;6.90;;
5682;SDS011;2864;49.220;8.654;2022-09-11T07:16:16;10.17;;;6.43;;
5682;SDS011;2864;49.220;8.654;2022-09-11T07:18:43;12.33;;;7.00;;
5682;SDS011;2864;49.220;8.654;2022-09-11T07:21:11;7.97;;;6.33;;
5682;SDS011;2864;49.220;8.654;2022-09-11T07:23:46;9.57;;;6.57;;
5682;SDS011;2864;49.220;8.654;2022-09-11T07:26:13;8.13;;;5.90;;
5682;SDS011;2864;49.220;8.654;2022-09-11T07:28:40;8.73;;;6.97;;
5682;SDS011;2864;49.220;8.654;2022-09-11T07:33:34;7.63;;;6.27;;
5682;SDS011;2864;49.220;8.654;2022-09-11T07:36:05;7.63;;;6.53;;
5682;SDS011;2864;49.220;8.654;2022-09-11T07:38:35;7.87;;;7.07;;
5682;SDS011;2864;49.220;8.654;2022-09-11T07:41:05;8.40;;;6.27;;
5682;SDS011;2864;49.220;8.654;2022-09-11T07:43:32;7.73;;;6.10;;
5682;SDS011;2864;49.220;8.654;2022-09-11T07:45:59;7.30;;;6.03;;
5682;SDS011;2864;49.220;8.654;2022-09-11T07:48:25;6.90;;;5.43;;
5682;SDS011;2864;49.220;8.654;2022-09-11T07:50:54;6.63;;;5.77;;
5682;SDS011;2864;49.220;8.654;2022-09-11T07:53:26;6.97;;;5.30;;
5682;SDS011;2864;49.220;8.654;2022-09-11T07:55:52;7.70;;;5.37;;
5682;SDS011;2864;49.220;8.654;2022-09-11T07:58:20;6.87;;;5.33;;
5682;SDS011;2864;49.220;8.654;2022-09-11T08:00:45;9.17;;;5.07;;
5682;SDS011;2864;49.220;8.654;2022-09-11T08:03:13;7.07;;;5.03;;
5682;SDS011;2864;49.220;8.654;2022-09-11T08:05:39;6.43;;;4.40;;
5682;SDS011;2864;49.220;8.654;2022-09-11T08:08:05;7.03;;;5.20;;
5682;SDS011;2864;49.220;8.654;2022-09-11T08:10:30;5.47;;;4.70;;
5682;SDS011;2864;49.220;8.654;2022-09-11T08:12:57;4.93;;;4.43;;
5682;SDS011;2864;49.220;8.654;2022-09-11T08:15:25;4.73;;;4.23;;
5682;SDS011;2864;49.220;8.654;2022-09-11T08:17:53;4.67;;;4.20;;
5682;SDS011;2864;49.220;8.654;2022-09-11T08:20:18;7.47;;;4.37;;
5682;SDS011;2864;49.220;8.654;2022-09-11T08:22:44;6.80;;;4.80;;
5682;SDS011;2864;49.220;8.654;2022-09-11T08:25:10;5.77;;;5.17;;
5682;SDS011;2864;49.220;8.654;2022-09-11T08:27:35;8.33;;;5.23;;
5682;SDS011;2864;49.220;8.654;2022-09-11T08:30:02;8.07;;;5.97;;
5682;SDS011;2864;49.220;8.654;2022-09-11T08:32:28;7.87;;;6.10;;
5682;SDS011;2864;49.220;8.654;2022-09-11T08:34:53;6.77;;;5.40;;
5682;SDS011;2864;49.220;8.654;2022-09-11T08:37:19;6.20;;;5.57;;
5682;SDS011;2864;49.220;8.654;2022-09-11T08:39:45;6.47;;;5.77;;
5682;SDS011;2864;49.220;8.654;2022-09-11T08:42:14;8.50;;;6.27;;
5682;SDS011;2864;49.220;8.654;2022-09-11T08:44:43;6.03;;;5.43;;
5682;SDS011;2864;49.220;8.654;2022-09-11T08:47:17;6.63;;;6.03;;
5682;SDS011;2864;49.220;8.654;2022-09-11T08:49:52;6.67;;;5.90;;
5682;SDS011;2864;49.220;8.654;2022-09-11T08:52:23;5.37;;;4.87;;
5682;SDS011;2864;49.220;8.654;2022-09-11T08:54:48;6.30;;;4.97;;
5682;SDS011;2864;49.220;8.654;2022-09-11T08:57:27;6.57;;;5.67;;
5682;SDS011;2864;49.220;8.654;2022-09-11T09:00:05;7.90;;;6.03;;
5682;SDS011;2864;49.220;8.654;2022-09-11T09:03:08;6.87;;;6.17;;
5682;SDS011;2864;49.220;8.654;2022-09-11T09:08:50;8.17;;;6.57;;
5682;SDS011;2864;49.220;8.654;2022-09-11T09:14:26;7.10;;;6.40;;
5682;SDS011;2864;49.220;8.654;2022-09-11T09:17:26;7.87;;;6.03;;
5682;SDS011;2864;49.220;8.654;2022-09-11T09:22:36;7.03;;;6.30;;
5682;SDS011;2864;49.220;8.654;2022-09-11T09:25:19;8.80;;;6.30;;
5682;SDS011;2864;49.220;8.654;2022-09-11T09:28:32;8.37;;;6.07;;
5682;SDS011;2864;49.220;8.654;2022-09-11T09:30:48;7.43;;;6.53;;
5682;SDS011;2864;49.220;8.654;2022-09-11T09:34:04;7.90;;;6.87;;
5682;SDS011;2864;49.220;8.654;2022-09-11T09:36:28;6.70;;;6.00;;
5682;SDS011;2864;49.220;8.654;2022-09-11T09:38:55;7.10;;;6.10;;
5682;SDS011;2864;49.220;8.654;2022-09-11T09:46:59;10.37;;;7.00;;
5682;SDS011;2864;49.220;8.654;2022-09-11T09:49:26;8.97;;;7.43;;
5682;SDS011;2864;49.220;8.654;2022-09-11T09:51:55;10.30;;;7.67;;
5682;SDS011;2864;49.220;8.654;2022-09-11T09:54:23;8.90;;;6.77;;
5682;SDS011;2864;49.220;8.654;2022-09-11T09:57:14;8.57;;;6.37;;
5682;SDS011;2864;49.220;8.654;2022-09-11T09:59:40;8.00;;;7.20;;
5682;SDS011;2864;49.220;8.654;2022-09-11T10:02:11;10.83;;;8.00;;
5682;SDS011;2864;49.220;8.654;2022-09-11T10:04:37;8.87;;;7.97;;
5682;SDS011;2864;49.220;8.654;2022-09-11T10:07:10;9.67;;;6.87;;
5682;SDS011;2864;49.220;8.654;2022-09-11T10:09:48;7.20;;;6.50;;
5682;SDS011;2864;49.220;8.654;2022-09-11T10:12:20;7.13;;;6.53;;
5682;SDS011;2864;49.220;8.654;2022-09-11T10:14:58;8.17;;;7.37;;
5682;SDS011;2864;49.220;8.654;2022-09-11T10:22:43;7.80;;;7.10;;
5682;SDS011;2864;49.220;8.654;2022-09-11T10:25:14;9.73;;;7.80;;
5682;SDS011;2864;49.220;8.654;2022-09-11T10:33:36;9.17;;;7.70;;
5682;SDS011;2864;49.220;8.654;2022-09-11T10:36:04;8.13;;;7.33;;
5682;SDS011;2864;49.220;8.654;2022-09-11T10:38:34;10.70;;;8.00;;
5682;SDS011;2864;49.220;8.654;2022-09-11T10:43:57;8.93;;;7.67;;
5682;SDS011;2864;49.220;8.654;2022-09-11T10:46:29;8.27;;;7.40;;
5682;SDS011;2864;49.220;8.654;2022-09-11T10:52:01;8.57;;;7.50;;
5682;SDS011;2864;49.220;8.654;2022-09-11T10:54:35;7.87;;;7.07;;
5682;SDS011;2864;49.220;8.654;2022-09-11T11:02:32;8.30;;;7.50;;
5682;SDS011;2864;49.220;8.654;2022-09-11T11:05:10;8.27;;;6.60;;
5682;SDS011;2864;49.220;8.654;2022-09-11T11:10:23;7.40;;;6.70;;
5682;SDS011;2864;49.220;8.654;2022-09-11T11:13:09;9.80;;;7.03;;
5682;SDS011;2864;49.220;8.654;2022-09-11T11:18:19;7.37;;;6.53;;
5682;SDS011;2864;49.220;8.654;2022-09-11T11:23:32;6.90;;;5.63;;
5682;SDS011;2864;49.220;8.654;2022-09-11T11:26:17;15.03;;;12.17;;
5682;SDS011;2864;49.220;8.654;2022-09-11T11:29:07;6.28;;;5.55;;
5682;SDS011;2864;49.220;8.654;2022-09-11T11:34:53;6.78;;;5.97;;
5682;SDS011;2864;49.220;8.654;2022-09-11T11:37:41;8.20;;;7.38;;
5682;SDS011;2864;49.220;8.654;2022-09-11T11:43:03;7.82;;;6.78;;
5682;SDS011;2864;49.220;8.654;2022-09-11T11:48:13;7.70;;;6.37;;
5682;SDS011;2864;49.220;8.654;2022-09-11T11:50:48;6.93;;;6.00;;
5682;SDS011;2864;49.220;8.654;2022-09-11T11:53:26;7.17;;;6.47;;
5682;SDS011;2864;49.220;8.654;2022-09-11T11:58:55;8.00;;;6.93;;
5682;SDS011;2864;49.220;8.654;2022-09-11T12:01:44;9.57;;;6.97;;
5682;SDS011;2864;49.220;8.654;2022-09-11T12:06:48;10.20;;;6.90;;
5682;SDS011;2864;49.220;8.654;2022-09-11T12:09:15;8.80;;;7.23;;
5682;SDS011;2864;49.220;8.654;2022-09-11T12:11:47;8.43;;;7.40;;
5682;SDS011;2864;49.220;8.654;2022-09-11T12:14:26;9.60;;;6.80;;
5682;SDS011;2864;49.220;8.654;2022-09-11T12:16:56;7.07;;;6.37;;
5682;SDS011;2864;49.220;8.654;2022-09-11T12:19:56;7.70;;;6.90;;
5682;SDS011;2864;49.220;8.654;2022-09-11T12:40:35;7.00;;;6.33;;
5682;SDS011;2864;49.220;8.654;2022-09-11T12:45:51;7.80;;;5.93;;
5682;SDS011;2864;49.220;8.654;2022-09-11T12:48:18;8.63;;;7.83;;
5682;SDS011;2864;49.220;8.654;2022-09-11T12:50:48;6.97;;;5.67;;
5682;SDS011;2864;49.220;8.654;2022-09-11T12:53:23;5.70;;;5.20;;
5682;SDS011;2864;49.220;8.654;2022-09-11T12:55:56;6.33;;;5.10;;
5682;SDS011;2864;49.220;8.654;2022-09-11T12:58:24;7.27;;;4.97;;
5682;SDS011;2864;49.220;8.654;2022-09-11T13:01:03;7.77;;;5.30;;
5682;SDS011;2864;49.220;8.654;2022-09-11T13:06:20;5.73;;;5.20;;
5682;SDS011;2864;49.220;8.654;2022-09-11T13:08:58;6.50;;;5.90;;
5682;SDS011;2864;49.220;8.654;2022-09-11T13:11:39;6.13;;;5.53;;
5682;SDS011;2864;49.220;8.654;2022-09-11T13:16:56;5.70;;;5.20;;
5682;SDS011;2864;49.220;8.654;2022-09-11T13:19:33;5.37;;;4.93;;
5682;SDS011;2864;49.220;8.654;2022-09-11T13:22:00;5.77;;;4.87;;
5682;SDS011;2864;49.220;8.654;2022-09-11T13:26:56;7.30;;;5.13;;
5682;SDS011;2864;49.220;8.654;2022-09-11T13:29:29;5.60;;;4.90;;
5682;SDS011;2864;49.220;8.654;2022-09-11T13:31:57;5.17;;;4.67;;
5682;SDS011;2864;49.220;8.654;2022-09-11T13:34:29;6.63;;;5.37;;
5682;SDS011;2864;49.220;8.654;2022-09-11T13:36:55;5.97;;;4.90;;
5682;SDS011;2864;49.220;8.654;2022-09-11T13:39:21;5.18;;;4.78;;
5682;SDS011;2864;49.220;8.654;2022-09-11T13:41:49;6.53;;;4.57;;
5682;SDS011;2864;49.220;8.654;2022-09-11T13:44:28;4.88;;;4.47;;
5682;SDS011;2864;49.220;8.654;2022-09-11T13:47:13;5.57;;;4.93;;
5682;SDS011;2864;49.220;8.654;2022-09-11T13:49:45;5.35;;;4.80;;
5682;SDS011;2864;49.220;8.654;2022-09-11T13:52:12;6.35;;;5.03;;
5682;SDS011;2864;49.220;8.654;2022-09-11T13:54:48;5.07;;;4.65;;
5682;SDS011;2864;49.220;8.654;2022-09-11T13:57:23;6.57;;;5.28;;
5682;SDS011;2864;49.220;8.654;2022-09-11T13:59:52;4.63;;;4.15;;
5682;SDS011;2864;49.220;8.654;2022-09-11T14:07:40;4.47;;;4.13;;
5682;SDS011;2864;49.220;8.654;2022-09-11T14:10:14;4.88;;;4.43;;
5682;SDS011;2864;49.220;8.654;2022-09-11T14:13:12;4.82;;;4.32;;
5682;SDS011;2864;49.220;8.654;2022-09-11T14:20:48;8.15;;;4.00;;
5682;SDS011;2864;49.220;8.654;2022-09-11T14:23:15;4.20;;;3.80;;
5682;SDS011;2864;49.220;8.654;2022-09-11T14:26:05;4.65;;;4.18;;
5682;SDS011;2864;49.220;8.654;2022-09-11T14:28:40;4.22;;;3.88;;
5682;SDS011;2864;49.220;8.654;2022-09-11T14:31:08;5.03;;;3.40;;
5682;SDS011;2864;49.220;8.654;2022-09-11T14:33:35;4.28;;;3.80;;
5682;SDS011;2864;49.220;8.654;2022-09-11T14:36:03;5.38;;;3.60;;
5682;SDS011;2864;49.220;8.654;2022-09-11T14:38:30;3.95;;;3.60;;
5682;SDS011;2864;49.220;8.654;2022-09-11T14:40:57;3.85;;;3.53;;
5682;SDS011;2864;49.220;8.654;2022-09-11T14:43:27;4.22;;;3.58;;
5682;SDS011;2864;49.220;8.654;2022-09-11T14:45:56;5.82;;;4.40;;
5682;SDS011;2864;49.220;8.654;2022-09-11T14:48:24;3.97;;;3.58;;
5682;SDS011;2864;49.220;8.654;2022-09-11T14:50:50;3.95;;;3.58;;
5682;SDS011;2864;49.220;8.654;2022-09-11T14:53:17;3.90;;;3.60;;
5682;SDS011;2864;49.220;8.654;2022-09-11T14:55:49;3.92;;;3.50;;
5682;SDS011;2864;49.220;8.654;2022-09-11T14:58:15;3.70;;;3.22;;
5682;SDS011;2864;49.220;8.654;2022-09-11T15:00:41;5.20;;;3.20;;
5682;SDS011;2864;49.220;8.654;2022-09-11T15:03:07;3.60;;;3.30;;
5682;SDS011;2864;49.220;8.654;2022-09-11T15:05:32;3.60;;;3.30;;
5682;SDS011;2864;49.220;8.654;2022-09-11T15:07:58;8.50;;;3.88;;
5682;SDS011;2864;49.220;8.654;2022-09-11T15:10:25;3.63;;;3.33;;
5682;SDS011;2864;49.220;8.654;2022-09-11T15:12:52;4.80;;;3.33;;
5682;SDS011;2864;49.220;8.654;2022-09-11T15:18:42;4.97;;;3.90;;
5682;SDS011;2864;49.220;8.654;2022-09-11T15:21:08;3.85;;;3.55;;
5682;SDS011;2864;49.220;8.654;2022-09-11T15:23:34;4.63;;;3.70;;
5682;SDS011;2864;49.220;8.654;2022-09-11T15:26:00;3.63;;;3.33;;
5682;SDS011;2864;49.220;8.654;2022-09-11T15:28:30;4.00;;;3.60;;
5682;SDS011;2864;49.220;8.654;2022-09-11T15:30:56;5.05;;;4.38;;
5682;SDS011;2864;49.220;8.654;2022-09-11T15:33:26;3.70;;;3.40;;
5682;SDS011;2864;49.220;8.654;2022-09-11T15:35:53;4.78;;;3.75;;
5682;SDS011;2864;49.220;8.654;2022-09-11T15:38:25;3.90;;;3.60;;
5682;SDS011;2864;49.220;8.654;2022-09-11T15:40:54;5.25;;;3.10;;
5682;SDS011;2864;49.220;8.654;2022-09-11T15:43:24;4.05;;;3.60;;
5682;SDS011;2864;49.220;8.654;2022-09-11T15:45:58;3.83;;;3.42;;
5682;SDS011;2864;49.220;8.654;2022-09-11T15:48:24;4.05;;;3.60;;
5682;SDS011;2864;49.220;8.654;2022-09-11T15:50:59;3.50;;;3.20;;
5682;SDS011;2864;49.220;8.654;2022-09-11T15:53:28;3.80;;;3.47;;
5682;SDS011;2864;49.220;8.654;2022-09-11T15:56:06;3.88;;;3.47;;
5682;SDS011;2864;49.220;8.654;2022-09-11T15:58:34;3.80;;;3.50;;
5682;SDS011;2864;49.220;8.654;2022-09-11T16:01:01;4.15;;;3.80;;
5682;SDS011;2864;49.220;8.654;2022-09-11T16:03:28;3.88;;;3.45;;
5682;SDS011;2864;49.220;8.654;2022-09-11T16:05:54;3.65;;;3.35;;
5682;SDS011;2864;49.220;8.654;2022-09-11T16:08:21;3.70;;;3.40;;
5682;SDS011;2864;49.220;8.654;2022-09-11T16:10:51;4.45;;;3.40;;
5682;SDS011;2864;49.220;8.654;2022-09-11T16:13:17;4.43;;;3.35;;
5682;SDS011;2864;49.220;8.654;2022-09-11T16:15:44;4.93;;;3.80;;
5682;SDS011;2864;49.220;8.654;2022-09-11T16:18:10;4.78;;;3.70;;
5682;SDS011;2864;49.220;8.654;2022-09-11T16:20:37;4.20;;;3.80;;
5682;SDS011;2864;49.220;8.654;2022-09-11T16:23:07;4.75;;;4.30;;
5682;SDS011;2864;49.220;8.654;2022-09-11T16:25:37;4.68;;;4.28;;
5682;SDS011;2864;49.220;8.654;2022-09-11T16:28:07;6.13;;;4.20;;
5682;SDS011;2864;49.220;8.654;2022-09-11T16:30:37;4.70;;;4.30;;
5682;SDS011;2864;49.220;8.654;2022-09-11T16:33:07;4.97;;;4.25;;
5682;SDS011;2864;49.220;8.654;2022-09-11T16:35:34;5.30;;;4.80;;
5682;SDS011;2864;49.220;8.654;2022-09-11T16:38:01;5.10;;;4.18;;
5682;SDS011;2864;49.220;8.654;2022-09-11T16:40:28;4.60;;;4.20;;
5682;SDS011;2864;49.220;8.654;2022-09-11T16:42:54;4.70;;;4.20;;
5682;SDS011;2864;49.220;8.654;2022-09-11T16:45:20;4.60;;;4.17;;
5682;SDS011;2864;49.220;8.654;2022-09-11T16:47:46;5.25;;;4.25;;
5682;SDS011;2864;49.220;8.654;2022-09-11T16:50:12;4.87;;;4.17;;
5682;SDS011;2864;49.220;8.654;2022-09-11T16:52:38;5.40;;;4.90;;
5682;SDS011;2864;49.220;8.654;2022-09-11T16:55:04;5.00;;;4.60;;
5682;SDS011;2864;49.220;8.654;2022-09-11T16:57:31;4.67;;;4.30;;
5682;SDS011;2864;49.220;8.654;2022-09-11T16:59:58;5.27;;;4.80;;
5682;SDS011;2864;49.220;8.654;2022-09-11T17:02:24;5.47;;;4.47;;
5682;SDS011;2864;49.220;8.654;2022-09-11T17:04:50;5.60;;;5.10;;
5682;SDS011;2864;49.220;8.654;2022-09-11T17:07:16;5.10;;;4.60;;
5682;SDS011;2864;49.220;8.654;2022-09-11T17:09:42;4.90;;;4.40;;
5682;SDS011;2864;49.220;8.654;2022-09-11T17:12:12;5.60;;;5.10;;
5682;SDS011;2864;49.220;8.654;2022-09-11T17:14:41;5.40;;;4.90;;
5682;SDS011;2864;49.220;8.654;2022-09-11T17:17:07;5.23;;;4.83;;
5682;SDS011;2864;49.220;8.654;2022-09-11T17:19:33;22.63;;;16.20;;
5682;SDS011;2864;49.220;8.654;2022-09-11T17:22:00;19.73;;;12.47;;
5682;SDS011;2864;49.220;8.654;2022-09-11T17:24:25;7.23;;;6.53;;
5682;SDS011;2864;49.220;8.654;2022-09-11T17:26:51;7.60;;;6.73;;
5682;SDS011;2864;49.220;8.654;2022-09-11T17:29:17;6.63;;;5.60;;
5682;SDS011;2864;49.220;8.654;2022-09-11T17:31:43;8.13;;;5.67;;
5682;SDS011;2864;49.220;8.654;2022-09-11T17:34:09;6.10;;;5.50;;
5682;SDS011;2864;49.220;8.654;2022-09-11T17:36:35;5.87;;;4.77;;
5682;SDS011;2864;49.220;8.654;2022-09-11T17:39:02;6.83;;;5.10;;
5682;SDS011;2864;49.220;8.654;2022-09-11T17:41:28;5.97;;;5.30;;
5682;SDS011;2864;49.220;8.654;2022-09-11T17:43:53;5.70;;;5.20;;
5682;SDS011;2864;49.220;8.654;2022-09-11T17:46:20;7.03;;;5.63;;